sensor_id;sensor_type;location;lat;lon;timestamp;temperature;humidity
23629;DHT22;11991;57.150;-2.134;2022-10-23T00:01:28;12.10;99.90
23629;DHT22;11991;57.150;-2.134;2022-10-23T00:04:01;12.10;99.90
23629;DHT22;11991;57.150;-2.134;2022-10-23T00:06:30;12.10;99.90
23629;DHT22;11991;57.150;-2.134;2022-10-23T00:08:57;12.10;99.90
23629;DHT22;11991;57.150;-2.134;2022-10-23T00:11:27;12.10;99.90
23629;DHT22;11991;57.150;-2.134;2022-10-23T00:13:56;12.10;99.90
23629;DHT22;11991;57.150;-2.134;2022-10-23T00:16:24;12.10;99.90
23629;DHT22;11991;57.150;-2.134;2022-10-23T00:18:51;12.10;99.90
23629;DHT22;11991;57.150;-2.134;2022-10-23T00:21:19;12.10;99.90
23629;DHT22;11991;57.150;-2.134;2022-10-23T00:23:47;12.10;99.90
23629;DHT22;11991;57.150;-2.134;2022-10-23T00:26:14;12.00;99.90
23629;DHT22;11991;57.150;-2.134;2022-10-23T00:28:48;12.10;99.90
23629;DHT22;11991;57.150;-2.134;2022-10-23T00:31:17;12.00;99.90
23629;DHT22;11991;57.150;-2.134;2022-10-23T00:33:44;12.00;99.90
23629;DHT22;11991;57.150;-2.134;2022-10-23T00:36:13;12.00;99.90
23629;DHT22;11991;57.150;-2.134;2022-10-23T00:38:43;12.00;99.90
23629;DHT22;11991;57.150;-2.134;2022-10-23T00:41:17;12.00;99.90
23629;DHT22;11991;57.150;-2.134;2022-10-23T00:44:05;12.00;99.90
23629;DHT22;11991;57.150;-2.134;2022-10-23T00:46:33;12.00;99.90
23629;DHT22;11991;57.150;-2.134;2022-10-23T00:49:02;12.00;99.90
23629;DHT22;11991;57.150;-2.134;2022-10-23T00:51:35;12.00;99.90
23629;DHT22;11991;57.150;-2.134;2022-10-23T00:54:03;12.00;99.90
23629;DHT22;11991;57.150;-2.134;2022-10-23T00:56:55;12.00;99.90
23629;DHT22;11991;57.150;-2.134;2022-10-23T00:59:24;12.00;99.90
23629;DHT22;11991;57.150;-2.134;2022-10-23T01:01:52;11.90;99.90
23629;DHT22;11991;57.150;-2.134;2022-10-23T01:04:20;11.90;99.90
23629;DHT22;11991;57.150;-2.134;2022-10-23T01:15:24;11.80;99.90
23629;DHT22;11991;57.150;-2.134;2022-10-23T01:21:23;11.80;99.90
23629;DHT22;11991;57.150;-2.134;2022-10-23T01:29:09;11.70;99.90
23629;DHT22;11991;57.150;-2.134;2022-10-23T01:31:44;11.70;99.90
23629;DHT22;11991;57.150;-2.134;2022-10-23T01:34:17;11.70;99.90
23629;DHT22;11991;57.150;-2.134;2022-10-23T01:36:48;11.70;99.90
23629;DHT22;11991;57.150;-2.134;2022-10-23T01:39:37;11.70;99.90
23629;DHT22;11991;57.150;-2.134;2022-10-23T01:42:09;11.60;99.90
23629;DHT22;11991;57.150;-2.134;2022-10-23T01:47:14;11.60;99.90
23629;DHT22;11991;57.150;-2.134;2022-10-23T01:50:02;11.60;99.90
23629;DHT22;11991;57.150;-2.134;2022-10-23T01:52:30;11.60;99.90
23629;DHT22;11991;57.150;-2.134;2022-10-23T01:54:59;11.60;99.90
23629;DHT22;11991;57.150;-2.134;2022-10-23T01:57:31;11.60;99.90
23629;DHT22;11991;57.150;-2.134;2022-10-23T02:00:11;11.50;99.90
23629;DHT22;11991;57.150;-2.134;2022-10-23T02:02:51;11.50;99.90
23629;DHT22;11991;57.150;-2.134;2022-10-23T02:05:26;11.50;99.90
23629;DHT22;11991;57.150;-2.134;2022-10-23T02:07:56;11.50;99.90
23629;DHT22;11991;57.150;-2.134;2022-10-23T02:11:01;11.50;99.90
23629;DHT22;11991;57.150;-2.134;2022-10-23T02:14:01;11.60;99.90
23629;DHT22;11991;57.150;-2.134;2022-10-23T02:16:53;11.60;99.90
23629;DHT22;11991;57.150;-2.134;2022-10-23T02:20:02;11.60;99.90
23629;DHT22;11991;57.150;-2.134;2022-10-23T02:22:29;11.60;99.90
23629;DHT22;11991;57.150;-2.134;2022-10-23T02:25:07;11.70;99.90
23629;DHT22;11991;57.150;-2.134;2022-10-23T02:27:49;11.70;99.90
23629;DHT22;11991;57.150;-2.134;2022-10-23T02:30:20;11.60;99.90
23629;DHT22;11991;57.150;-2.134;2022-10-23T02:33:04;11.60;99.90
23629;DHT22;11991;57.150;-2.134;2022-10-23T02:35:32;11.60;99.90
23629;DHT22;11991;57.150;-2.134;2022-10-23T02:38:37;11.60;99.90
23629;DHT22;11991;57.150;-2.134;2022-10-23T02:47:06;11.60;99.90
23629;DHT22;11991;57.150;-2.134;2022-10-23T02:49:55;11.60;99.90
23629;DHT22;11991;57.150;-2.134;2022-10-23T02:55:33;11.60;99.90
23629;DHT22;11991;57.150;-2.134;2022-10-23T02:58:23;11.60;99.90
23629;DHT22;11991;57.150;-2.134;2022-10-23T03:00:58;11.60;99.90
23629;DHT22;11991;57.150;-2.134;2022-10-23T03:03:35;11.60;99.90
23629;DHT22;11991;57.150;-2.134;2022-10-23T03:06:05;11.50;99.90
23629;DHT22;11991;57.150;-2.134;2022-10-23T03:08:53;11.50;99.90
23629;DHT22;11991;57.150;-2.134;2022-10-23T03:11:23;11.50;99.90
23629;DHT22;11991;57.150;-2.134;2022-10-23T03:13:51;11.50;99.90
23629;DHT22;11991;57.150;-2.134;2022-10-23T03:16:18;11.50;99.90
23629;DHT22;11991;57.150;-2.134;2022-10-23T03:18:50;11.50;99.90
23629;DHT22;11991;57.150;-2.134;2022-10-23T03:21:18;11.40;99.90
23629;DHT22;11991;57.150;-2.134;2022-10-23T03:23:49;11.40;99.90
23629;DHT22;11991;57.150;-2.134;2022-10-23T03:26:21;11.40;99.90
23629;DHT22;11991;57.150;-2.134;2022-10-23T03:28:48;11.40;99.90
23629;DHT22;11991;57.150;-2.134;2022-10-23T03:31:18;11.40;99.90
23629;DHT22;11991;57.150;-2.134;2022-10-23T03:33:47;11.40;99.90
23629;DHT22;11991;57.150;-2.134;2022-10-23T03:36:14;11.40;99.90
23629;DHT22;11991;57.150;-2.134;2022-10-23T03:38:43;11.40;99.90
23629;DHT22;11991;57.150;-2.134;2022-10-23T03:41:10;11.40;99.90
23629;DHT22;11991;57.150;-2.134;2022-10-23T03:43:37;11.40;99.90
23629;DHT22;11991;57.150;-2.134;2022-10-23T03:46:05;11.40;99.90
23629;DHT22;11991;57.150;-2.134;2022-10-23T03:48:35;11.40;99.90
23629;DHT22;11991;57.150;-2.134;2022-10-23T03:51:05;11.30;99.90
23629;DHT22;11991;57.150;-2.134;2022-10-23T03:53:33;11.30;99.90
23629;DHT22;11991;57.150;-2.134;2022-10-23T03:56:02;11.30;99.90
23629;DHT22;11991;57.150;-2.134;2022-10-23T03:58:31;11.30;99.90
23629;DHT22;11991;57.150;-2.134;2022-10-23T04:00:58;11.30;99.90
23629;DHT22;11991;57.150;-2.134;2022-10-23T04:03:26;11.30;99.90
23629;DHT22;11991;57.150;-2.134;2022-10-23T04:05:53;11.30;99.90
23629;DHT22;11991;57.150;-2.134;2022-10-23T04:08:21;11.30;99.90
23629;DHT22;11991;57.150;-2.134;2022-10-23T04:10:53;11.30;99.90
23629;DHT22;11991;57.150;-2.134;2022-10-23T04:13:30;11.30;99.90
23629;DHT22;11991;57.150;-2.134;2022-10-23T04:15:57;11.30;99.90
23629;DHT22;11991;57.150;-2.134;2022-10-23T04:18:24;11.30;99.90
23629;DHT22;11991;57.150;-2.134;2022-10-23T04:20:51;11.30;99.90
23629;DHT22;11991;57.150;-2.134;2022-10-23T04:23:19;11.30;99.90
23629;DHT22;11991;57.150;-2.134;2022-10-23T04:25:46;11.30;99.90
23629;DHT22;11991;57.150;-2.134;2022-10-23T04:28:14;11.30;99.90
23629;DHT22;11991;57.150;-2.134;2022-10-23T04:30:41;11.30;99.90
23629;DHT22;11991;57.150;-2.134;2022-10-23T04:33:11;11.30;99.90
23629;DHT22;11991;57.150;-2.134;2022-10-23T04:35:38;11.30;99.90
23629;DHT22;11991;57.150;-2.134;2022-10-23T04:38:05;11.40;99.90
23629;DHT22;11991;57.150;-2.134;2022-10-23T04:40:33;11.40;99.90
23629;DHT22;11991;57.150;-2.134;2022-10-23T04:43:00;11.40;99.90
23629;DHT22;11991;57.150;-2.134;2022-10-23T04:45:31;11.40;99.90
23629;DHT22;11991;57.150;-2.134;2022-10-23T04:47:58;11.40;99.90
23629;DHT22;11991;57.150;-2.134;2022-10-23T04:50:27;11.40;99.90
23629;DHT22;11991;57.150;-2.134;2022-10-23T04:53:27;11.40;99.90
23629;DHT22;11991;57.150;-2.134;2022-10-23T04:56:24;11.40;99.90
23629;DHT22;11991;57.150;-2.134;2022-10-23T04:59:01;11.40;99.90
23629;DHT22;11991;57.150;-2.134;2022-10-23T05:01:30;11.40;99.90
23629;DHT22;11991;57.150;-2.134;2022-10-23T05:03:58;11.40;99.90
23629;DHT22;11991;57.150;-2.134;2022-10-23T05:06:25;11.40;99.90
23629;DHT22;11991;57.150;-2.134;2022-10-23T05:09:13;11.30;99.90
23629;DHT22;11991;57.150;-2.134;2022-10-23T05:11:58;11.30;99.90
23629;DHT22;11991;57.150;-2.134;2022-10-23T05:14:25;11.30;99.90
23629;DHT22;11991;57.150;-2.134;2022-10-23T05:17:11;11.30;99.90
23629;DHT22;11991;57.150;-2.134;2022-10-23T05:19:43;11.30;99.90
23629;DHT22;11991;57.150;-2.134;2022-10-23T05:22:12;11.30;99.90
23629;DHT22;11991;57.150;-2.134;2022-10-23T05:24:58;11.30;99.90
23629;DHT22;11991;57.150;-2.134;2022-10-23T05:27:30;11.30;99.90
23629;DHT22;11991;57.150;-2.134;2022-10-23T05:29:58;11.40;99.90
23629;DHT22;11991;57.150;-2.134;2022-10-23T05:32:30;11.40;99.90
23629;DHT22;11991;57.150;-2.134;2022-10-23T05:34:59;11.40;99.90
23629;DHT22;11991;57.150;-2.134;2022-10-23T05:37:28;11.40;99.90
23629;DHT22;11991;57.150;-2.134;2022-10-23T05:40:10;11.40;99.90
23629;DHT22;11991;57.150;-2.134;2022-10-23T05:42:39;11.40;99.90
23629;DHT22;11991;57.150;-2.134;2022-10-23T05:45:10;11.40;99.90
23629;DHT22;11991;57.150;-2.134;2022-10-23T05:48:03;11.40;99.90
23629;DHT22;11991;57.150;-2.134;2022-10-23T05:51:09;11.40;99.90
23629;DHT22;11991;57.150;-2.134;2022-10-23T05:53:51;11.40;99.90
23629;DHT22;11991;57.150;-2.134;2022-10-23T05:56:37;11.40;99.90
23629;DHT22;11991;57.150;-2.134;2022-10-23T05:59:09;11.40;99.90
23629;DHT22;11991;57.150;-2.134;2022-10-23T06:01:48;11.30;99.90
23629;DHT22;11991;57.150;-2.134;2022-10-23T06:04:39;11.30;99.90
23629;DHT22;11991;57.150;-2.134;2022-10-23T06:07:28;11.30;99.90
23629;DHT22;11991;57.150;-2.134;2022-10-23T06:10:04;11.30;99.90
23629;DHT22;11991;57.150;-2.134;2022-10-23T06:12:42;11.30;99.90
23629;DHT22;11991;57.150;-2.134;2022-10-23T06:15:13;11.30;99.90
23629;DHT22;11991;57.150;-2.134;2022-10-23T06:18:02;11.30;99.90
23629;DHT22;11991;57.150;-2.134;2022-10-23T06:20:37;11.20;99.90
23629;DHT22;11991;57.150;-2.134;2022-10-23T06:23:10;11.20;99.90
23629;DHT22;11991;57.150;-2.134;2022-10-23T06:26:17;11.20;99.90
23629;DHT22;11991;57.150;-2.134;2022-10-23T06:28:58;11.20;99.90
23629;DHT22;11991;57.150;-2.134;2022-10-23T06:31:25;11.20;99.90
23629;DHT22;11991;57.150;-2.134;2022-10-23T06:33:57;11.20;99.90
23629;DHT22;11991;57.150;-2.134;2022-10-23T06:36:25;11.20;99.90
23629;DHT22;11991;57.150;-2.134;2022-10-23T06:38:59;11.20;99.90
23629;DHT22;11991;57.150;-2.134;2022-10-23T06:41:47;11.20;99.90
23629;DHT22;11991;57.150;-2.134;2022-10-23T06:44:34;11.10;99.90
23629;DHT22;11991;57.150;-2.134;2022-10-23T06:47:08;11.10;99.90
23629;DHT22;11991;57.150;-2.134;2022-10-23T06:50:00;11.10;99.90
23629;DHT22;11991;57.150;-2.134;2022-10-23T06:52:28;11.10;99.90
23629;DHT22;11991;57.150;-2.134;2022-10-23T06:55:17;11.10;99.90
23629;DHT22;11991;57.150;-2.134;2022-10-23T06:57:45;11.10;99.90
23629;DHT22;11991;57.150;-2.134;2022-10-23T07:00:13;11.10;99.90
23629;DHT22;11991;57.150;-2.134;2022-10-23T07:02:47;11.10;99.90
23629;DHT22;11991;57.150;-2.134;2022-10-23T07:05:15;11.10;99.90
23629;DHT22;11991;57.150;-2.134;2022-10-23T07:07:42;11.10;99.90
23629;DHT22;11991;57.150;-2.134;2022-10-23T07:10:12;11.20;99.90
23629;DHT22;11991;57.150;-2.134;2022-10-23T07:12:41;11.20;99.90
23629;DHT22;11991;57.150;-2.134;2022-10-23T07:15:35;11.20;99.90
23629;DHT22;11991;57.150;-2.134;2022-10-23T07:18:05;11.20;99.90
23629;DHT22;11991;57.150;-2.134;2022-10-23T07:20:57;11.20;99.90
23629;DHT22;11991;57.150;-2.134;2022-10-23T07:23:24;11.20;99.90
23629;DHT22;11991;57.150;-2.134;2022-10-23T07:25:52;11.20;99.90
23629;DHT22;11991;57.150;-2.134;2022-10-23T07:28:22;11.20;99.90
23629;DHT22;11991;57.150;-2.134;2022-10-23T07:30:59;11.20;99.90
23629;DHT22;11991;57.150;-2.134;2022-10-23T07:33:44;11.20;99.90
23629;DHT22;11991;57.150;-2.134;2022-10-23T07:36:17;11.30;99.90
23629;DHT22;11991;57.150;-2.134;2022-10-23T07:38:45;11.30;99.90
23629;DHT22;11991;57.150;-2.134;2022-10-23T07:41:12;11.30;99.90
23629;DHT22;11991;57.150;-2.134;2022-10-23T07:43:40;11.30;99.90
23629;DHT22;11991;57.150;-2.134;2022-10-23T07:46:07;11.30;99.90
23629;DHT22;11991;57.150;-2.134;2022-10-23T07:48:38;11.30;99.90
23629;DHT22;11991;57.150;-2.134;2022-10-23T07:51:13;11.30;99.90
23629;DHT22;11991;57.150;-2.134;2022-10-23T07:53:44;11.30;99.90
23629;DHT22;11991;57.150;-2.134;2022-10-23T07:56:34;11.40;99.90
23629;DHT22;11991;57.150;-2.134;2022-10-23T07:59:25;11.40;99.90
23629;DHT22;11991;57.150;-2.134;2022-10-23T08:01:53;11.40;99.90
23629;DHT22;11991;57.150;-2.134;2022-10-23T08:04:34;11.40;99.90
23629;DHT22;11991;57.150;-2.134;2022-10-23T08:07:11;11.40;99.90
23629;DHT22;11991;57.150;-2.134;2022-10-23T08:09:41;11.50;99.90
23629;DHT22;11991;57.150;-2.134;2022-10-23T08:12:08;11.50;99.90
23629;DHT22;11991;57.150;-2.134;2022-10-23T08:14:36;11.50;99.90
23629;DHT22;11991;57.150;-2.134;2022-10-23T08:17:03;11.60;99.90
23629;DHT22;11991;57.150;-2.134;2022-10-23T08:20:10;11.60;99.90
23629;DHT22;11991;57.150;-2.134;2022-10-23T08:22:42;11.70;99.90
23629;DHT22;11991;57.150;-2.134;2022-10-23T08:25:11;11.70;99.90
23629;DHT22;11991;57.150;-2.134;2022-10-23T08:27:38;11.80;99.90
23629;DHT22;11991;57.150;-2.134;2022-10-23T08:30:06;11.80;99.90
23629;DHT22;11991;57.150;-2.134;2022-10-23T08:32:34;11.90;99.90
23629;DHT22;11991;57.150;-2.134;2022-10-23T08:35:02;11.90;99.90
23629;DHT22;11991;57.150;-2.134;2022-10-23T08:37:31;12.00;99.90
23629;DHT22;11991;57.150;-2.134;2022-10-23T08:39:58;12.00;99.90
23629;DHT22;11991;57.150;-2.134;2022-10-23T08:46:00;12.10;99.90
23629;DHT22;11991;57.150;-2.134;2022-10-23T08:49:06;12.20;99.90
23629;DHT22;11991;57.150;-2.134;2022-10-23T08:51:53;12.20;99.90
23629;DHT22;11991;57.150;-2.134;2022-10-23T08:54:25;12.20;99.90
23629;DHT22;11991;57.150;-2.134;2022-10-23T08:57:02;12.30;99.90
23629;DHT22;11991;57.150;-2.134;2022-10-23T09:02:23;12.30;99.90
23629;DHT22;11991;57.150;-2.134;2022-10-23T09:04:53;12.30;99.90
23629;DHT22;11991;57.150;-2.134;2022-10-23T09:11:00;12.20;99.90
23629;DHT22;11991;57.150;-2.134;2022-10-23T09:13:54;12.20;99.90
23629;DHT22;11991;57.150;-2.134;2022-10-23T09:19:23;12.20;99.90
23629;DHT22;11991;57.150;-2.134;2022-10-23T09:21:54;12.20;99.90
23629;DHT22;11991;57.150;-2.134;2022-10-23T09:24:23;12.20;99.90
23629;DHT22;11991;57.150;-2.134;2022-10-23T09:26:52;12.20;99.90
23629;DHT22;11991;57.150;-2.134;2022-10-23T09:31:51;12.30;99.90
23629;DHT22;11991;57.150;-2.134;2022-10-23T09:34:22;12.30;99.90
23629;DHT22;11991;57.150;-2.134;2022-10-23T09:36:56;12.30;99.90
23629;DHT22;11991;57.150;-2.134;2022-10-23T09:39:29;12.40;99.90
23629;DHT22;11991;57.150;-2.134;2022-10-23T09:41:58;12.40;99.90
23629;DHT22;11991;57.150;-2.134;2022-10-23T09:44:31;12.50;99.90
23629;DHT22;11991;57.150;-2.134;2022-10-23T09:49:29;12.70;99.90
23629;DHT22;11991;57.150;-2.134;2022-10-23T09:54:50;12.80;99.90
23629;DHT22;11991;57.150;-2.134;2022-10-23T09:57:26;12.90;99.90
23629;DHT22;11991;57.150;-2.134;2022-10-23T10:00:02;12.90;99.90
23629;DHT22;11991;57.150;-2.134;2022-10-23T10:02:37;13.00;99.90
23629;DHT22;11991;57.150;-2.134;2022-10-23T10:14:01;13.20;99.90
23629;DHT22;11991;57.150;-2.134;2022-10-23T10:22:29;13.40;99.90
23629;DHT22;11991;57.150;-2.134;2022-10-23T10:39:30;13.50;99.90
23629;DHT22;11991;57.150;-2.134;2022-10-23T10:42:28;13.60;99.90
23629;DHT22;11991;57.150;-2.134;2022-10-23T10:48:14;13.60;99.90
23629;DHT22;11991;57.150;-2.134;2022-10-23T10:51:29;13.60;99.90
23629;DHT22;11991;57.150;-2.134;2022-10-23T10:56:33;13.60;99.90
23629;DHT22;11991;57.150;-2.134;2022-10-23T10:59:05;13.70;99.90
23629;DHT22;11991;57.150;-2.134;2022-10-23T11:01:44;13.70;99.90
23629;DHT22;11991;57.150;-2.134;2022-10-23T11:04:33;13.70;99.90
23629;DHT22;11991;57.150;-2.134;2022-10-23T11:07:07;13.70;99.90
23629;DHT22;11991;57.150;-2.134;2022-10-23T11:09:35;13.70;99.90
23629;DHT22;11991;57.150;-2.134;2022-10-23T11:12:02;13.80;99.90
23629;DHT22;11991;57.150;-2.134;2022-10-23T11:14:32;13.80;99.90
23629;DHT22;11991;57.150;-2.134;2022-10-23T11:17:04;13.80;99.90
23629;DHT22;11991;57.150;-2.134;2022-10-23T11:25:55;13.80;99.90
23629;DHT22;11991;57.150;-2.134;2022-10-23T11:28:45;13.80;99.90
23629;DHT22;11991;57.150;-2.134;2022-10-23T11:31:35;13.80;99.90
23629;DHT22;11991;57.150;-2.134;2022-10-23T11:36:53;13.80;99.90
23629;DHT22;11991;57.150;-2.134;2022-10-23T11:39:28;13.80;99.90
23629;DHT22;11991;57.150;-2.134;2022-10-23T11:42:13;13.80;99.90
23629;DHT22;11991;57.150;-2.134;2022-10-23T11:44:48;13.80;99.90
23629;DHT22;11991;57.150;-2.134;2022-10-23T11:47:36;13.80;99.90
23629;DHT22;11991;57.150;-2.134;2022-10-23T11:52:39;13.70;99.90
23629;DHT22;11991;57.150;-2.134;2022-10-23T11:55:38;13.70;99.90
23629;DHT22;11991;57.150;-2.134;2022-10-23T11:58:16;13.60;99.90
23629;DHT22;11991;57.150;-2.134;2022-10-23T12:01:15;13.60;99.90
23629;DHT22;11991;57.150;-2.134;2022-10-23T12:03:54;13.50;99.90
23629;DHT22;11991;57.150;-2.134;2022-10-23T12:06:31;13.50;99.90
23629;DHT22;11991;57.150;-2.134;2022-10-23T12:09:04;13.50;99.90
23629;DHT22;11991;57.150;-2.134;2022-10-23T12:11:45;13.40;99.90
23629;DHT22;11991;57.150;-2.134;2022-10-23T12:16:55;13.40;99.90
23629;DHT22;11991;57.150;-2.134;2022-10-23T12:19:26;13.40;99.90
23629;DHT22;11991;57.150;-2.134;2022-10-23T12:21:57;13.40;99.90
23629;DHT22;11991;57.150;-2.134;2022-10-23T12:27:45;13.40;99.90
23629;DHT22;11991;57.150;-2.134;2022-10-23T12:33:32;13.30;99.90
23629;DHT22;11991;57.150;-2.134;2022-10-23T12:38:47;13.30;99.90
23629;DHT22;11991;57.150;-2.134;2022-10-23T12:41:25;13.30;99.90
23629;DHT22;11991;57.150;-2.134;2022-10-23T12:43:56;13.30;99.90
23629;DHT22;11991;57.150;-2.134;2022-10-23T12:46:30;13.30;99.90
23629;DHT22;11991;57.150;-2.134;2022-10-23T12:49:00;13.30;99.90
23629;DHT22;11991;57.150;-2.134;2022-10-23T12:51:34;13.20;99.90
23629;DHT22;11991;57.150;-2.134;2022-10-23T12:54:02;13.30;99.90
23629;DHT22;11991;57.150;-2.134;2022-10-23T12:56:36;13.20;99.90
23629;DHT22;11991;57.150;-2.134;2022-10-23T12:59:16;13.30;99.90
23629;DHT22;11991;57.150;-2.134;2022-10-23T13:01:44;13.30;99.90
23629;DHT22;11991;57.150;-2.134;2022-10-23T13:06:51;13.40;99.90
23629;DHT22;11991;57.150;-2.134;2022-10-23T13:12:28;13.40;99.90
23629;DHT22;11991;57.150;-2.134;2022-10-23T13:15:17;13.40;99.90
23629;DHT22;11991;57.150;-2.134;2022-10-23T13:18:01;13.40;99.90
23629;DHT22;11991;57.150;-2.134;2022-10-23T13:20:37;13.40;99.90
23629;DHT22;11991;57.150;-2.134;2022-10-23T13:25:55;13.50;99.90
23629;DHT22;11991;57.150;-2.134;2022-10-23T13:28:25;13.50;99.90
23629;DHT22;11991;57.150;-2.134;2022-10-23T13:33:41;13.50;99.90
23629;DHT22;11991;57.150;-2.134;2022-10-23T13:38:42;13.50;99.90
23629;DHT22;11991;57.150;-2.134;2022-10-23T13:41:18;13.50;99.90
23629;DHT22;11991;57.150;-2.134;2022-10-23T13:43:47;13.50;99.90
23629;DHT22;11991;57.150;-2.134;2022-10-23T13:46:15;13.50;99.90
23629;DHT22;11991;57.150;-2.134;2022-10-23T13:48:43;13.50;99.90
23629;DHT22;11991;57.150;-2.134;2022-10-23T13:51:13;13.40;99.90
23629;DHT22;11991;57.150;-2.134;2022-10-23T13:53:41;13.40;99.90
23629;DHT22;11991;57.150;-2.134;2022-10-23T13:56:12;13.40;99.90
23629;DHT22;11991;57.150;-2.134;2022-10-23T13:58:40;13.40;99.90
23629;DHT22;11991;57.150;-2.134;2022-10-23T14:01:22;13.30;99.90
23629;DHT22;11991;57.150;-2.134;2022-10-23T14:03:52;13.30;99.90
23629;DHT22;11991;57.150;-2.134;2022-10-23T14:06:19;13.30;99.90
23629;DHT22;11991;57.150;-2.134;2022-10-23T14:08:46;13.30;99.90
23629;DHT22;11991;57.150;-2.134;2022-10-23T14:11:16;13.30;99.90
23629;DHT22;11991;57.150;-2.134;2022-10-23T14:13:43;13.30;99.90
23629;DHT22;11991;57.150;-2.134;2022-10-23T14:16:12;13.30;99.90
23629;DHT22;11991;57.150;-2.134;2022-10-23T14:18:40;13.30;99.90
23629;DHT22;11991;57.150;-2.134;2022-10-23T14:21:10;13.30;99.90
23629;DHT22;11991;57.150;-2.134;2022-10-23T14:23:37;13.30;99.90
23629;DHT22;11991;57.150;-2.134;2022-10-23T14:26:10;13.30;99.90
23629;DHT22;11991;57.150;-2.134;2022-10-23T14:28:38;13.30;99.90
23629;DHT22;11991;57.150;-2.134;2022-10-23T14:31:07;13.30;99.90
23629;DHT22;11991;57.150;-2.134;2022-10-23T14:33:35;13.30;99.90
23629;DHT22;11991;57.150;-2.134;2022-10-23T14:36:02;13.30;99.90
23629;DHT22;11991;57.150;-2.134;2022-10-23T14:38:30;13.20;99.90
23629;DHT22;11991;57.150;-2.134;2022-10-23T14:40:57;13.20;99.90
23629;DHT22;11991;57.150;-2.134;2022-10-23T14:43:25;13.20;99.90
23629;DHT22;11991;57.150;-2.134;2022-10-23T14:45:52;13.20;99.90
23629;DHT22;11991;57.150;-2.134;2022-10-23T14:48:19;13.20;99.90
23629;DHT22;11991;57.150;-2.134;2022-10-23T14:50:48;13.10;99.90
23629;DHT22;11991;57.150;-2.134;2022-10-23T14:53:16;13.10;99.90
23629;DHT22;11991;57.150;-2.134;2022-10-23T14:55:43;13.10;99.90
23629;DHT22;11991;57.150;-2.134;2022-10-23T14:58:10;13.10;99.90
23629;DHT22;11991;57.150;-2.134;2022-10-23T15:01:02;13.10;99.90
23629;DHT22;11991;57.150;-2.134;2022-10-23T15:03:30;13.10;99.90
23629;DHT22;11991;57.150;-2.134;2022-10-23T15:05:57;13.10;99.90
23629;DHT22;11991;57.150;-2.134;2022-10-23T15:08:25;13.10;99.90
23629;DHT22;11991;57.150;-2.134;2022-10-23T15:10:52;13.10;99.90
23629;DHT22;11991;57.150;-2.134;2022-10-23T15:13:20;13.00;99.90
23629;DHT22;11991;57.150;-2.134;2022-10-23T15:15:47;13.10;99.90
23629;DHT22;11991;57.150;-2.134;2022-10-23T15:18:14;13.10;99.90
23629;DHT22;11991;57.150;-2.134;2022-10-23T15:20:41;13.10;99.90
23629;DHT22;11991;57.150;-2.134;2022-10-23T15:23:08;13.10;99.90
23629;DHT22;11991;57.150;-2.134;2022-10-23T15:25:35;13.10;99.90
23629;DHT22;11991;57.150;-2.134;2022-10-23T15:28:02;13.00;99.90
23629;DHT22;11991;57.150;-2.134;2022-10-23T15:30:30;13.00;99.90
23629;DHT22;11991;57.150;-2.134;2022-10-23T15:32:57;13.00;99.90
23629;DHT22;11991;57.150;-2.134;2022-10-23T15:35:24;13.00;99.90
23629;DHT22;11991;57.150;-2.134;2022-10-23T15:37:51;13.00;99.90
23629;DHT22;11991;57.150;-2.134;2022-10-23T15:40:19;13.00;99.90
23629;DHT22;11991;57.150;-2.134;2022-10-23T15:42:48;13.00;99.90
23629;DHT22;11991;57.150;-2.134;2022-10-23T15:45:15;13.00;99.90
23629;DHT22;11991;57.150;-2.134;2022-10-23T15:47:43;12.90;99.90
23629;DHT22;11991;57.150;-2.134;2022-10-23T15:50:10;12.90;99.90
23629;DHT22;11991;57.150;-2.134;2022-10-23T15:52:38;12.90;99.90
23629;DHT22;11991;57.150;-2.134;2022-10-23T15:55:05;12.90;99.90
23629;DHT22;11991;57.150;-2.134;2022-10-23T15:57:32;12.90;99.90
23629;DHT22;11991;57.150;-2.134;2022-10-23T16:00:00;12.80;99.90
23629;DHT22;11991;57.150;-2.134;2022-10-23T16:02:27;12.90;99.90
23629;DHT22;11991;57.150;-2.134;2022-10-23T16:04:54;12.80;99.90
23629;DHT22;11991;57.150;-2.134;2022-10-23T16:07:21;12.80;99.90
23629;DHT22;11991;57.150;-2.134;2022-10-23T16:09:49;12.80;99.90
23629;DHT22;11991;57.150;-2.134;2022-10-23T16:12:17;12.80;99.90
23629;DHT22;11991;57.150;-2.134;2022-10-23T16:14:44;12.70;99.90
23629;DHT22;11991;57.150;-2.134;2022-10-23T16:17:11;12.70;99.90
23629;DHT22;11991;57.150;-2.134;2022-10-23T16:19:43;12.70;99.90
23629;DHT22;11991;57.150;-2.134;2022-10-23T16:22:10;12.70;99.90
23629;DHT22;11991;57.150;-2.134;2022-10-23T16:24:37;12.70;99.90
23629;DHT22;11991;57.150;-2.134;2022-10-23T16:27:04;12.70;99.90
23629;DHT22;11991;57.150;-2.134;2022-10-23T16:29:32;12.60;99.90
23629;DHT22;11991;57.150;-2.134;2022-10-23T16:31:59;12.60;99.90
23629;DHT22;11991;57.150;-2.134;2022-10-23T16:34:26;12.60;99.90
23629;DHT22;11991;57.150;-2.134;2022-10-23T16:36:53;12.60;99.90
23629;DHT22;11991;57.150;-2.134;2022-10-23T16:39:40;12.60;99.90
23629;DHT22;11991;57.150;-2.134;2022-10-23T16:42:37;12.60;99.90
23629;DHT22;11991;57.150;-2.134;2022-10-23T16:45:24;12.60;99.90
23629;DHT22;11991;57.150;-2.134;2022-10-23T16:47:52;12.50;99.90
23629;DHT22;11991;57.150;-2.134;2022-10-23T16:50:19;12.50;99.90
23629;DHT22;11991;57.150;-2.134;2022-10-23T16:52:46;12.50;99.90
23629;DHT22;11991;57.150;-2.134;2022-10-23T16:55:18;12.50;99.90
23629;DHT22;11991;57.150;-2.134;2022-10-23T16:57:45;12.50;99.90
23629;DHT22;11991;57.150;-2.134;2022-10-23T17:00:12;12.50;99.90
23629;DHT22;11991;57.150;-2.134;2022-10-23T17:02:39;12.50;99.90
23629;DHT22;11991;57.150;-2.134;2022-10-23T17:05:07;12.50;99.90
23629;DHT22;11991;57.150;-2.134;2022-10-23T17:07:34;12.50;99.90
23629;DHT22;11991;57.150;-2.134;2022-10-23T17:10:03;12.40;99.90
23629;DHT22;11991;57.150;-2.134;2022-10-23T17:12:30;12.40;99.90
23629;DHT22;11991;57.150;-2.134;2022-10-23T17:14:57;12.40;99.90
23629;DHT22;11991;57.150;-2.134;2022-10-23T17:17:25;12.40;99.90
23629;DHT22;11991;57.150;-2.134;2022-10-23T17:19:53;12.40;99.90
23629;DHT22;11991;57.150;-2.134;2022-10-23T17:22:20;12.40;99.90
23629;DHT22;11991;57.150;-2.134;2022-10-23T17:24:47;12.40;99.90
23629;DHT22;11991;57.150;-2.134;2022-10-23T17:27:19;12.30;99.90
23629;DHT22;11991;57.150;-2.134;2022-10-23T17:29:46;12.30;99.90
23629;DHT22;11991;57.150;-2.134;2022-10-23T17:32:14;12.30;99.90
23629;DHT22;11991;57.150;-2.134;2022-10-23T17:34:41;12.30;99.90
23629;DHT22;11991;57.150;-2.134;2022-10-23T17:37:08;12.30;99.90
23629;DHT22;11991;57.150;-2.134;2022-10-23T17:39:36;12.30;99.90
23629;DHT22;11991;57.150;-2.134;2022-10-23T17:42:03;12.30;99.90
23629;DHT22;11991;57.150;-2.134;2022-10-23T17:44:30;12.30;99.90
23629;DHT22;11991;57.150;-2.134;2022-10-23T17:46:57;12.30;99.90
23629;DHT22;11991;57.150;-2.134;2022-10-23T17:49:25;12.30;99.90
23629;DHT22;11991;57.150;-2.134;2022-10-23T17:51:54;12.30;99.90
23629;DHT22;11991;57.150;-2.134;2022-10-23T17:54:24;12.30;99.90